createdAt,value
2018-07-16T00:01:25.070Z,78.99
2018-07-16T00:04:29.457Z,79.25
2018-07-16T00:07:34.006Z,79.61
2018-07-16T00:10:38.242Z,79.11
2018-07-16T00:13:42.588Z,79.60
2018-07-16T00:16:47.199Z,79.82
2018-07-16T00:19:51.668Z,79.64
2018-07-16T00:22:56.074Z,79.70
2018-07-16T00:26:00.953Z,80.22
2018-07-16T00:29:05.328Z,80.72
2018-07-16T00:32:10.358Z,81.38
2018-07-16T00:35:14.659Z,81.82
2018-07-16T00:38:19.047Z,81.97
2018-07-16T00:41:23.462Z,81.95
2018-07-16T00:44:27.897Z,83.05
2018-07-16T00:47:32.597Z,82.62
2018-07-16T00:50:36.935Z,82.72
2018-07-16T00:53:41.196Z,82.76
2018-07-16T00:56:45.620Z,82.61
2018-07-16T00:59:49.975Z,82.75
2018-07-16T01:02:54.471Z,82.87
2018-07-16T01:05:58.797Z,83.84
2018-07-16T01:09:02.885Z,84.48
2018-07-16T01:12:07.454Z,84.88
2018-07-16T01:15:11.807Z,85.88
2018-07-16T01:18:17.187Z,87.68
2018-07-16T01:21:21.517Z,87.77
2018-07-16T01:24:25.945Z,88.17
2018-07-16T01:27:30.259Z,88.22
2018-07-16T01:30:34.594Z,86.74
2018-07-16T01:33:39.046Z,86.23
2018-07-16T01:36:43.309Z,86.87
2018-07-16T01:39:47.628Z,87.62
2018-07-16T01:42:51.913Z,89.31
2018-07-16T01:45:56.329Z,88.23
2018-07-16T01:49:00.680Z,87.93
2018-07-16T01:52:05.304Z,87.71
2018-07-16T01:55:09.757Z,88.21
2018-07-16T01:58:14.024Z,88.41
2018-07-16T02:01:18.397Z,87.70
2018-07-16T02:04:22.666Z,88.85
2018-07-16T02:07:27.038Z,88.64
2018-07-16T02:10:31.426Z,88.65
2018-07-16T02:13:35.785Z,89.62
2018-07-16T02:16:40.207Z,89.71
2018-07-16T02:19:44.615Z,90.82
2018-07-16T02:22:48.944Z,90.74
2018-07-16T02:25:53.276Z,90.97
2018-07-16T02:28:57.619Z,91.12
2018-07-16T02:32:02.058Z,92.21
2018-07-16T02:35:06.428Z,92.26
2018-07-16T02:38:10.716Z,92.35
2018-07-16T02:41:15.040Z,91.35
2018-07-16T02:44:19.119Z,90.52
2018-07-16T02:47:23.495Z,90.15
2018-07-16T02:50:28.244Z,89.92
2018-07-16T02:53:32.629Z,89.83
2018-07-16T02:56:36.986Z,90.32
2018-07-16T02:59:41.282Z,90.56
2018-07-16T03:02:45.726Z,91.00
2018-07-16T03:05:50.121Z,92.14
2018-07-16T03:08:54.199Z,92.84
2018-07-16T03:11:58.524Z,93.45
2018-07-16T03:15:03.219Z,93.31
2018-07-16T03:18:07.662Z,93.50
2018-07-16T03:21:12.081Z,93.23
2018-07-16T03:24:16.479Z,93.37
2018-07-16T03:27:21.819Z,93.38
2018-07-16T03:30:26.192Z,93.19
2018-07-16T03:33:31.457Z,92.29
2018-07-16T03:36:35.845Z,92.01
2018-07-16T03:39:40.198Z,91.30
2018-07-16T03:42:44.631Z,89.97
2018-07-16T03:45:49.076Z,88.95
2018-07-16T03:48:53.458Z,84.74
2018-07-16T03:51:57.781Z,83.36
2018-07-16T03:55:02.189Z,82.57
2018-07-16T03:58:06.546Z,82.60
2018-07-16T04:01:10.963Z,82.61
2018-07-16T04:04:15.363Z,82.81
2018-07-16T04:07:19.767Z,82.43
2018-07-16T04:10:24.128Z,81.87
2018-07-16T04:13:28.461Z,82.47
2018-07-16T04:16:32.811Z,84.19
2018-07-16T04:19:37.361Z,84.47
2018-07-16T04:22:41.780Z,86.04
2018-07-16T04:25:46.109Z,86.48
2018-07-16T04:28:50.444Z,86.72
2018-07-16T04:31:54.878Z,87.36
2018-07-16T04:34:59.227Z,87.43
2018-07-16T04:38:03.522Z,87.48
2018-07-16T04:41:07.938Z,87.78
2018-07-16T04:44:12.341Z,87.92
2018-07-16T04:47:16.677Z,88.06
2018-07-16T04:50:21.055Z,88.08
2018-07-16T04:53:25.396Z,87.56
2018-07-16T04:56:29.771Z,87.54
2018-07-16T04:59:34.290Z,87.23
2018-07-16T05:02:38.895Z,86.84
2018-07-16T05:05:43.306Z,85.98
2018-07-16T05:08:47.598Z,85.97
2018-07-16T05:11:52.024Z,86.01
2018-07-16T05:14:56.574Z,85.23
2018-07-16T05:18:01.177Z,85.22
2018-07-16T05:21:05.494Z,84.85
2018-07-16T05:24:10.143Z,85.52
2018-07-16T05:27:14.653Z,84.66
2018-07-16T05:30:19.394Z,84.42
2018-07-16T05:33:23.800Z,83.84
2018-07-16T05:36:28.302Z,84.24
2018-07-16T05:39:33.942Z,83.37
2018-07-16T05:42:38.308Z,83.61
2018-07-16T05:45:45.210Z,82.37
2018-07-16T05:48:49.910Z,81.98
2018-07-16T05:51:54.509Z,81.86
2018-07-16T05:54:58.997Z,81.13
2018-07-16T05:58:03.402Z,80.15
2018-07-16T06:01:08.064Z,79.47
2018-07-16T06:04:12.511Z,80.06
2018-07-16T06:07:17.090Z,78.61
2018-07-16T06:10:21.669Z,78.63
2018-07-16T06:13:25.987Z,77.75
2018-07-16T06:16:30.426Z,77.86
2018-07-16T06:19:34.974Z,77.04
2018-07-16T06:22:39.514Z,75.69
2018-07-16T06:25:43.865Z,75.15
2018-07-16T06:28:48.930Z,75.25
2018-07-16T06:31:53.766Z,74.09
2018-07-16T06:34:58.210Z,73.41
2018-07-16T06:38:02.612Z,73.46
2018-07-16T06:41:07.201Z,72.24
2018-07-16T06:44:11.326Z,71.27
2018-07-16T06:47:15.653Z,70.01
2018-07-16T06:50:19.973Z,69.74
2018-07-16T06:53:24.344Z,69.95
2018-07-16T06:56:28.692Z,68.91
2018-07-16T06:59:33.255Z,68.43
2018-07-16T07:02:37.679Z,67.92
2018-07-16T07:05:42.266Z,67.80
2018-07-16T07:08:46.636Z,66.51
2018-07-16T07:11:51.069Z,67.11
2018-07-16T07:14:55.412Z,67.35
2018-07-16T07:17:59.588Z,66.97
2018-07-16T07:21:03.895Z,67.35
2018-07-16T07:24:08.266Z,67.44
2018-07-16T07:27:12.620Z,66.63
2018-07-16T07:30:16.956Z,67.36
2018-07-16T07:33:21.247Z,66.94
2018-07-16T07:36:25.593Z,66.80
2018-07-16T07:39:29.957Z,66.04
2018-07-16T07:42:34.318Z,65.79
2018-07-16T07:45:38.598Z,65.21
2018-07-16T07:48:42.952Z,64.59
2018-07-16T07:51:47.348Z,63.90
2018-07-16T07:54:51.980Z,63.47
2018-07-16T07:57:56.119Z,62.87
2018-07-16T08:01:00.390Z,62.11
2018-07-16T08:04:04.794Z,62.85
2018-07-16T08:07:13.970Z,62.09
2018-07-16T08:10:18.359Z,61.47
2018-07-16T08:13:22.762Z,60.52
2018-07-16T08:16:27.171Z,60.49
2018-07-16T08:19:31.485Z,60.67
2018-07-16T08:22:35.801Z,60.02
2018-07-16T08:25:40.193Z,60.30
2018-07-16T08:28:44.547Z,59.10
2018-07-16T08:31:48.817Z,59.25
2018-07-16T08:34:53.209Z,59.37
2018-07-16T08:37:57.539Z,57.97
2018-07-16T08:41:02.021Z,58.91
2018-07-16T08:44:06.313Z,57.44
2018-07-16T08:47:10.396Z,57.15
2018-07-16T08:50:14.852Z,57.17
2018-07-16T08:53:19.180Z,56.65
2018-07-16T08:56:23.305Z,57.00
2018-07-16T08:59:27.628Z,57.00
2018-07-16T09:02:31.967Z,55.78
2018-07-16T09:05:36.268Z,55.15
2018-07-16T09:08:40.524Z,53.78
2018-07-16T09:11:44.782Z,53.12
2018-07-16T09:14:49.097Z,52.77
2018-07-16T09:17:53.439Z,52.87
2018-07-16T09:20:57.991Z,52.63
2018-07-16T09:24:02.235Z,52.45
2018-07-16T09:27:06.653Z,51.87
2018-07-16T09:30:11.040Z,51.30
2018-07-16T09:33:15.348Z,51.10
2018-07-16T09:36:19.614Z,50.17
2018-07-16T09:39:23.913Z,50.73
2018-07-16T09:42:28.282Z,50.00
2018-07-16T09:45:32.972Z,48.76
2018-07-16T09:48:37.374Z,49.94
2018-07-16T09:51:41.820Z,51.19
2018-07-16T09:54:46.177Z,49.34
2018-07-16T09:57:50.823Z,49.31
2018-07-16T10:01:00.668Z,50.12
2018-07-16T10:04:04.996Z,50.83
2018-07-16T10:07:09.434Z,50.02
2018-07-16T10:10:13.854Z,49.01
2018-07-16T10:13:18.307Z,50.27
2018-07-16T10:16:22.657Z,50.93
2018-07-16T10:19:27.022Z,49.94
2018-07-16T10:22:31.284Z,50.88
2018-07-16T10:25:35.665Z,50.13
2018-07-16T10:28:40.078Z,50.62
2018-07-16T10:31:44.551Z,50.72
2018-07-16T10:34:48.896Z,50.40
2018-07-16T10:37:53.300Z,49.36
2018-07-16T10:40:58.197Z,48.43
2018-07-16T10:44:02.517Z,46.99
2018-07-16T10:47:06.863Z,47.88
2018-07-16T10:50:11.199Z,48.71
2018-07-16T10:53:16.564Z,49.96
2018-07-16T10:56:20.836Z,48.80
2018-07-16T10:59:25.264Z,48.84
2018-07-16T11:02:29.636Z,48.36
2018-07-16T11:05:34.209Z,48.14
2018-07-16T11:08:38.424Z,46.56
2018-07-16T11:11:42.770Z,47.68
2018-07-16T11:14:47.181Z,48.11
2018-07-16T11:17:51.387Z,48.27
2018-07-16T11:20:55.752Z,46.35
2018-07-16T11:24:00.169Z,46.17
2018-07-16T11:27:04.619Z,47.10
2018-07-16T11:30:09.434Z,47.62
2018-07-16T11:33:13.842Z,48.36
2018-07-16T11:36:18.169Z,46.74
2018-07-16T11:39:22.600Z,46.67
2018-07-16T11:42:27.013Z,46.98
2018-07-16T11:45:31.310Z,46.69
2018-07-16T11:48:35.596Z,47.13
2018-07-16T11:51:39.912Z,45.46
2018-07-16T11:54:44.421Z,45.50
2018-07-16T11:57:48.770Z,44.20
2018-07-16T12:00:53.193Z,45.20
2018-07-16T12:03:57.471Z,45.16
2018-07-16T12:07:01.850Z,45.32
2018-07-16T12:10:06.292Z,45.14
2018-07-16T12:13:10.652Z,44.33
2018-07-16T12:16:15.089Z,43.55
2018-07-16T12:19:19.849Z,43.51
2018-07-16T12:22:24.632Z,43.50
2018-07-16T12:25:29.089Z,42.85
2018-07-16T12:28:33.519Z,44.00
2018-07-16T12:31:37.931Z,43.82
2018-07-16T12:34:42.462Z,43.59
2018-07-16T12:37:49.739Z,44.17
2018-07-16T12:40:54.121Z,43.17
2018-07-16T12:43:58.406Z,42.99
2018-07-16T12:47:03.106Z,43.87
2018-07-16T12:50:07.613Z,44.07
2018-07-16T12:53:12.149Z,43.11
2018-07-16T12:56:16.500Z,41.52
2018-07-16T12:59:21.432Z,43.02
2018-07-16T13:02:25.831Z,42.54
2018-07-16T13:05:30.176Z,43.35
2018-07-16T13:08:34.613Z,44.07
2018-07-16T13:11:39.071Z,43.65
2018-07-16T13:14:43.435Z,43.81
2018-07-16T13:17:47.766Z,44.63
2018-07-16T13:20:52.213Z,43.10
2018-07-16T13:23:56.584Z,42.66
2018-07-16T13:27:00.883Z,42.45
2018-07-16T13:30:05.901Z,41.82
2018-07-16T13:33:10.500Z,42.27
2018-07-16T13:36:14.862Z,42.33
2018-07-16T13:39:19.195Z,42.94
2018-07-16T13:42:23.535Z,42.47
2018-07-16T13:45:27.860Z,43.67
2018-07-16T13:48:32.321Z,42.68
2018-07-16T13:51:36.674Z,43.29
2018-07-16T13:54:40.792Z,42.13
2018-07-16T13:57:45.104Z,42.67
2018-07-16T14:00:49.501Z,43.36
2018-07-16T14:03:53.848Z,42.28
2018-07-16T14:06:58.317Z,43.47
2018-07-16T14:10:02.701Z,41.30
2018-07-16T14:13:07.290Z,42.10
2018-07-16T14:16:12.134Z,41.27
2018-07-16T14:19:16.510Z,42.09
2018-07-16T14:22:20.810Z,41.69
2018-07-16T14:25:25.236Z,41.03
2018-07-16T14:28:29.571Z,41.05
2018-07-16T14:31:33.967Z,39.41
2018-07-16T14:34:38.281Z,40.08
2018-07-16T14:37:42.631Z,39.58
2018-07-16T14:40:47.181Z,39.79
2018-07-16T14:43:51.526Z,40.03
2018-07-16T14:46:55.989Z,39.81
2018-07-16T14:50:00.484Z,39.83
2018-07-16T14:53:04.798Z,38.71
2018-07-16T14:56:09.286Z,38.53
2018-07-16T14:59:13.643Z,37.50
2018-07-16T15:02:18.132Z,38.07
2018-07-16T15:05:22.693Z,37.17
2018-07-16T15:08:27.354Z,36.90
2018-07-16T15:11:31.942Z,36.46
2018-07-16T15:14:36.329Z,35.47
2018-07-16T15:17:40.752Z,35.71
2018-07-16T15:20:45.281Z,36.29
2018-07-16T15:23:49.462Z,35.80
2018-07-16T15:26:53.825Z,33.81
2018-07-16T15:29:58.981Z,33.25
2018-07-16T15:33:03.351Z,32.43
2018-07-16T15:36:07.782Z,31.94
2018-07-16T15:39:12.092Z,31.65
2018-07-16T15:42:16.430Z,30.39
2018-07-16T15:45:20.849Z,30.22
2018-07-16T15:48:25.388Z,31.44
2018-07-16T15:51:29.648Z,30.17
2018-07-16T15:54:34.104Z,30.31
2018-07-16T15:57:38.496Z,30.75
2018-07-16T16:00:42.833Z,29.54
2018-07-16T16:03:47.541Z,29.53
2018-07-16T16:06:51.815Z,29.46
2018-07-16T16:09:56.239Z,29.82
2018-07-16T16:13:00.620Z,29.21
2018-07-16T16:16:05.065Z,30.07
2018-07-16T16:19:09.442Z,29.74
2018-07-16T16:22:14.007Z,30.60
2018-07-16T16:25:18.410Z,30.69
2018-07-16T16:28:22.772Z,29.22
2018-07-16T16:31:27.118Z,28.58
2018-07-16T16:34:31.513Z,29.10
2018-07-16T16:37:35.923Z,29.58
2018-07-16T16:40:40.205Z,28.51
2018-07-16T16:43:44.874Z,29.78
2018-07-16T16:46:49.259Z,29.91
2018-07-16T16:49:53.758Z,29.95
2018-07-16T16:52:58.250Z,30.61
2018-07-16T16:56:03.292Z,29.22
2018-07-16T16:59:08.307Z,30.06
2018-07-16T17:02:12.679Z,29.47
2018-07-16T17:05:17.185Z,29.59
2018-07-16T17:08:21.542Z,29.73
2018-07-16T17:11:26.187Z,28.88
2018-07-16T17:14:30.642Z,30.71
2018-07-16T17:17:35.076Z,29.46
2018-07-16T17:20:39.567Z,29.37
2018-07-16T17:23:44.003Z,31.01
2018-07-16T17:26:48.361Z,33.61
2018-07-16T17:29:52.876Z,34.95
2018-07-16T17:32:57.330Z,36.86
2018-07-16T17:36:01.836Z,38.29
2018-07-16T17:39:08.778Z,39.21
2018-07-16T17:42:13.166Z,39.21
2018-07-16T17:45:17.495Z,40.58
2018-07-16T17:48:21.936Z,41.53
2018-07-16T17:51:26.338Z,41.44
2018-07-16T17:54:30.987Z,42.05
2018-07-16T17:57:35.476Z,42.94
2018-07-16T18:00:39.919Z,42.72
2018-07-16T18:03:44.318Z,42.53
2018-07-16T18:06:48.648Z,43.37
2018-07-16T18:09:53.694Z,44.35
2018-07-16T18:12:58.000Z,45.96
2018-07-16T18:16:02.416Z,45.91
2018-07-16T18:19:06.725Z,47.18
2018-07-16T18:22:11.033Z,47.26
2018-07-16T18:25:15.396Z,48.02
2018-07-16T18:28:19.757Z,47.39
2018-07-16T18:31:24.151Z,48.79
2018-07-16T18:34:28.460Z,48.59
2018-07-16T18:37:32.977Z,48.47
2018-07-16T18:40:37.379Z,48.67
2018-07-16T18:43:42.178Z,48.91
2018-07-16T18:46:46.655Z,49.37
2018-07-16T18:49:50.962Z,51.00
2018-07-16T18:52:55.349Z,50.71
2018-07-16T18:55:59.872Z,50.96
2018-07-16T18:59:04.358Z,50.82
2018-07-16T19:02:09.010Z,51.62
2018-07-16T19:05:13.184Z,52.24
2018-07-16T19:08:17.767Z,52.79
2018-07-16T19:11:22.180Z,53.29
2018-07-16T19:14:26.758Z,54.76
2018-07-16T19:17:31.152Z,54.81
2018-07-16T19:20:35.572Z,54.86
2018-07-16T19:23:40.001Z,55.55
2018-07-16T19:26:46.363Z,56.29
2018-07-16T19:29:50.461Z,56.37
2018-07-16T19:32:54.828Z,56.61
2018-07-16T19:35:59.217Z,56.43
2018-07-16T19:39:05.638Z,55.49
2018-07-16T19:42:10.243Z,55.79
2018-07-16T19:45:14.670Z,54.88
2018-07-16T19:48:19.095Z,55.47
2018-07-16T19:51:23.692Z,59.67
2018-07-16T19:54:28.117Z,60.92
2018-07-16T19:57:32.662Z,61.47
2018-07-16T20:00:37.075Z,62.31
2018-07-16T20:03:41.543Z,61.70
2018-07-16T20:06:46.015Z,60.16
2018-07-16T20:09:50.393Z,60.99
2018-07-16T20:12:54.741Z,62.26
2018-07-16T20:15:59.178Z,64.03
2018-07-16T20:19:03.687Z,64.21
2018-07-16T20:22:08.029Z,64.86
2018-07-16T20:25:12.342Z,64.92
2018-07-16T20:28:16.799Z,65.50
2018-07-16T20:31:21.186Z,64.04
2018-07-16T20:34:25.663Z,62.75
2018-07-16T20:37:30.022Z,62.60
2018-07-16T20:40:34.509Z,64.21
2018-07-16T20:43:39.183Z,64.19
2018-07-16T20:46:43.599Z,64.36
2018-07-16T20:49:47.971Z,63.96
2018-07-16T20:52:52.619Z,64.02
2018-07-16T20:55:56.928Z,64.66
2018-07-16T20:59:01.451Z,67.78
2018-07-16T21:02:06.012Z,70.03
2018-07-16T21:05:10.505Z,70.58
2018-07-16T21:08:14.952Z,70.21
2018-07-16T21:11:19.395Z,70.54
2018-07-16T21:14:23.791Z,70.95
2018-07-16T21:17:28.311Z,72.18
2018-07-16T21:20:32.744Z,71.23
2018-07-16T21:23:37.177Z,71.13
2018-07-16T21:26:41.687Z,70.62
2018-07-16T21:29:46.414Z,71.68
2018-07-16T21:32:50.784Z,72.77
2018-07-16T21:35:55.373Z,73.96
2018-07-16T21:38:59.866Z,75.91
2018-07-16T21:42:04.251Z,77.23
2018-07-16T21:45:08.643Z,76.75
2018-07-16T21:48:13.087Z,77.88
2018-07-16T21:51:17.602Z,78.04
2018-07-16T21:54:22.019Z,78.52
2018-07-16T21:57:26.439Z,77.57
2018-07-16T22:00:31.811Z,75.90
2018-07-16T22:03:36.334Z,75.44
2018-07-16T22:06:40.762Z,75.81
2018-07-16T22:09:45.203Z,74.78
2018-07-16T22:12:49.698Z,75.90
2018-07-16T22:15:54.080Z,76.22
2018-07-16T22:18:58.525Z,76.18
2018-07-16T22:22:02.954Z,76.81
2018-07-16T22:25:07.513Z,76.20
2018-07-16T22:28:11.830Z,76.33
2018-07-16T22:31:16.291Z,76.94
2018-07-16T22:34:20.605Z,78.18
2018-07-16T22:37:26.162Z,79.33
2018-07-16T22:40:31.476Z,79.07
2018-07-16T22:43:35.958Z,78.94
2018-07-16T22:46:40.394Z,78.15
2018-07-16T22:49:44.868Z,76.71
2018-07-16T22:52:49.368Z,76.95
2018-07-16T22:55:53.840Z,77.42
2018-07-16T22:58:58.247Z,77.57
2018-07-16T23:02:02.899Z,77.04
2018-07-16T23:05:07.407Z,77.60
2018-07-16T23:08:12.777Z,77.52
2018-07-16T23:11:17.164Z,79.13
2018-07-16T23:14:22.181Z,80.04
2018-07-16T23:17:26.627Z,80.20
2018-07-16T23:20:31.108Z,79.87
2018-07-16T23:23:35.687Z,78.90
2018-07-16T23:26:40.130Z,78.80
2018-07-16T23:29:44.596Z,78.52
2018-07-16T23:32:49.070Z,78.93
2018-07-16T23:35:53.498Z,78.98
2018-07-16T23:38:57.952Z,79.30
2018-07-16T23:42:02.351Z,79.87
2018-07-16T23:45:06.837Z,79.55
2018-07-16T23:48:11.292Z,80.33
2018-07-16T23:51:15.713Z,82.22
2018-07-16T23:54:20.079Z,83.95
2018-07-16T23:57:24.564Z,84.30
